OIHH  Hamadan Airport

Add Bookmark

Hamadan, Iran

Status IATA
Operational HDM
Latitude Longitude
34° 52' 9" N 48° 33' 9" E
34.869202 48.552502
Local (DST + 5) UTC (GMT + 4)
Sep 23, 2014 05:46 Sep 23, 2014 02:16
Sunrise-Sunset Local UTC
Begin Civil Twilight 05:38 02:08
Sunrise 06:03 02:33
Sunset 06:12 14:42
End Civil Twilight 06:37 15:07

Current Weather

METAR Observed VFR
OIHH 230150Z 33006KT CAVOK 09/M04 Q1019 Tue, Sep 23, 2014 @ 01:50 UTC
(26 Minutes ago)
Visual Flight Rules
Wind Visibility Clouds Conditions
330° at 6 knots (11 kph) 10 km or more
  • Clear skies
  • No significant weather
Temperatures Readings Precipitation
Current Temp 9°C (48°F)
Dewpoint -4°C (25°F)
Humidity 40%
Altimeter 30.09"Hg
Sea Level Pressure 1019mb
Field Elevation 5764.44'
None Recorded

Additional weather within a 92.6km radius of OIHH

Map ICAO Location
OIHM 69.5km S (160°)

24 Hour Weather History

Loading
-

24 Hour Weather Graphs

Loading
-

CheckWX.com is intended as a tool to help pilots better visualize weather data. It is not intended as a substitute for an official weather briefing obtained from a Flight Service Station. CheckWX.com does not meet the FAA requirements for an official pre-flight weather briefing. Therefore, it's important that pilots still call and obtain an official FSS pre-flight weather briefing.